createdAt,value
2019-03-09T00:00:24.043Z,0
2019-03-09T00:01:25.389Z,0
2019-03-09T00:02:26.821Z,0
2019-03-09T00:03:28.205Z,0
2019-03-09T00:04:29.600Z,0
2019-03-09T00:05:31.118Z,0
2019-03-09T00:06:32.586Z,0
2019-03-09T00:07:33.976Z,0
2019-03-09T00:08:35.490Z,0
2019-03-09T00:09:36.884Z,0
2019-03-09T00:10:38.266Z,0
2019-03-09T00:11:39.650Z,0
2019-03-09T00:12:44.624Z,0
2019-03-09T00:13:46.004Z,0
2019-03-09T00:14:47.397Z,0
2019-03-09T00:15:48.785Z,0
2019-03-09T00:16:50.172Z,0
2019-03-09T00:17:51.569Z,0
2019-03-09T00:18:52.955Z,0
2019-03-09T00:19:54.341Z,0
2019-03-09T00:20:55.734Z,0
2019-03-09T00:21:57.120Z,0
2019-03-09T00:22:58.518Z,0
2019-03-09T00:23:59.913Z,0
2019-03-09T00:25:01.297Z,0
2019-03-09T00:26:02.691Z,0
2019-03-09T00:27:04.086Z,0
2019-03-09T00:28:05.481Z,0
2019-03-09T00:29:07.067Z,0
2019-03-09T00:30:08.461Z,0
2019-03-09T00:31:09.853Z,0
2019-03-09T00:32:11.245Z,0
2019-03-09T00:33:12.595Z,0
2019-03-09T00:34:13.976Z,0
2019-03-09T00:35:15.365Z,0
2019-03-09T00:36:16.749Z,0
2019-03-09T00:37:18.140Z,0
2019-03-09T00:38:19.530Z,0
2019-03-09T00:39:21.809Z,0
2019-03-09T00:40:23.191Z,0
2019-03-09T00:41:24.582Z,0
2019-03-09T00:42:25.968Z,0
2019-03-09T00:43:27.319Z,0
2019-03-09T00:44:29.425Z,0
2019-03-09T00:45:30.076Z,0
2019-03-09T00:46:31.524Z,0
2019-03-09T00:47:32.927Z,0
2019-03-09T00:48:34.319Z,0
2019-03-09T00:49:35.763Z,0
2019-03-09T00:50:37.149Z,0
2019-03-09T00:51:38.533Z,0
2019-03-09T00:52:39.921Z,0
2019-03-09T00:53:41.311Z,0
2019-03-09T00:54:42.697Z,0
2019-03-09T00:55:44.097Z,0
2019-03-09T00:56:45.485Z,0
2019-03-09T00:57:46.861Z,0
2019-03-09T00:58:48.326Z,0
2019-03-09T00:59:49.708Z,0
2019-03-09T01:00:51.088Z,0
2019-03-09T01:01:52.481Z,0
2019-03-09T01:02:53.863Z,0
2019-03-09T01:03:55.248Z,0
2019-03-09T01:04:56.798Z,0
2019-03-09T01:05:58.190Z,0
2019-03-09T01:06:59.568Z,0
2019-03-09T01:08:01.058Z,0
2019-03-09T01:09:02.447Z,0
2019-03-09T01:10:03.833Z,0
2019-03-09T01:11:05.434Z,0
2019-03-09T01:12:06.826Z,0
2019-03-09T01:13:08.208Z,0
2019-03-09T01:14:09.604Z,0
2019-03-09T01:15:10.986Z,0
2019-03-09T01:16:12.369Z,0
2019-03-09T01:17:13.806Z,0
2019-03-09T01:18:15.196Z,0
2019-03-09T01:19:16.580Z,0
2019-03-09T01:20:18.025Z,0
2019-03-09T01:21:19.415Z,0
2019-03-09T01:22:20.799Z,0
2019-03-09T01:23:22.285Z,0
2019-03-09T01:24:23.671Z,0
2019-03-09T01:25:25.075Z,0
2019-03-09T01:26:26.457Z,0
2019-03-09T01:27:27.917Z,0
2019-03-09T01:28:29.305Z,0
2019-03-09T01:29:30.695Z,0
2019-03-09T01:30:32.160Z,0
2019-03-09T01:31:33.551Z,0
2019-03-09T01:32:34.944Z,0
2019-03-09T01:33:36.443Z,0
2019-03-09T01:34:37.833Z,0
2019-03-09T01:35:39.209Z,0
2019-03-09T01:36:40.720Z,0
2019-03-09T01:37:42.112Z,0
2019-03-09T01:38:43.504Z,0
2019-03-09T01:39:44.902Z,0
2019-03-09T01:40:46.308Z,0
2019-03-09T01:41:47.710Z,0
2019-03-09T01:42:49.136Z,0
2019-03-09T01:43:50.532Z,0
2019-03-09T01:44:51.969Z,0
2019-03-09T01:45:53.379Z,0
2019-03-09T01:46:54.777Z,0
2019-03-09T01:47:56.191Z,0
2019-03-09T01:48:57.587Z,0
2019-03-09T01:49:58.989Z,0
2019-03-09T01:51:00.403Z,0
2019-03-09T01:52:01.825Z,0
2019-03-09T01:53:03.229Z,0
2019-03-09T01:54:04.618Z,0
2019-03-09T01:55:06.012Z,0
2019-03-09T01:56:07.406Z,0
2019-03-09T01:57:08.801Z,0
2019-03-09T01:58:10.195Z,0
2019-03-09T01:59:11.588Z,0
2019-03-09T02:00:12.975Z,0
2019-03-09T02:01:14.369Z,0
2019-03-09T02:02:15.763Z,0
2019-03-09T02:03:17.173Z,0
2019-03-09T02:04:18.566Z,0
2019-03-09T02:05:19.979Z,0
2019-03-09T02:06:21.396Z,0
2019-03-09T02:07:22.803Z,0
2019-03-09T02:08:24.194Z,0
2019-03-09T02:09:26.559Z,0
2019-03-09T02:10:27.952Z,0
2019-03-09T02:11:29.354Z,0
2019-03-09T02:12:30.746Z,0
2019-03-09T02:13:32.127Z,0
2019-03-09T02:14:33.534Z,0
2019-03-09T02:15:34.923Z,0
2019-03-09T02:16:36.310Z,0
2019-03-09T02:17:37.730Z,0
2019-03-09T02:18:39.114Z,0
2019-03-09T02:19:40.523Z,0
2019-03-09T02:20:41.921Z,0
2019-03-09T02:21:43.307Z,0
2019-03-09T02:22:44.731Z,0
2019-03-09T02:23:46.137Z,0
2019-03-09T02:24:47.533Z,0
2019-03-09T02:25:48.919Z,0
2019-03-09T02:26:50.307Z,0
2019-03-09T02:27:51.706Z,0
2019-03-09T02:28:53.112Z,0
2019-03-09T02:29:54.518Z,0
2019-03-09T02:30:55.898Z,0
2019-03-09T02:31:57.291Z,0
2019-03-09T02:32:58.688Z,0
2019-03-09T02:34:00.102Z,0
2019-03-09T02:35:01.521Z,0
2019-03-09T02:36:02.903Z,0
2019-03-09T02:37:04.310Z,0
2019-03-09T02:38:05.741Z,0
2019-03-09T02:39:07.126Z,0
2019-03-09T02:40:08.527Z,0
2019-03-09T02:41:09.952Z,0
2019-03-09T02:42:11.328Z,0
2019-03-09T02:43:12.747Z,0
2019-03-09T02:44:14.156Z,0
2019-03-09T02:45:15.570Z,0
2019-03-09T02:46:16.955Z,0
2019-03-09T02:47:18.374Z,0
2019-03-09T02:48:19.760Z,0
2019-03-09T02:49:21.170Z,0
2019-03-09T02:50:22.565Z,0
2019-03-09T02:51:23.946Z,0
2019-03-09T02:52:25.413Z,0
2019-03-09T02:53:26.780Z,0
2019-03-09T02:54:28.192Z,0
2019-03-09T02:55:29.588Z,0
2019-03-09T02:56:30.990Z,0
2019-03-09T02:57:32.382Z,0
2019-03-09T02:58:33.760Z,0
2019-03-09T02:59:35.156Z,0
2019-03-09T03:00:36.542Z,0
2019-03-09T03:01:37.933Z,0
2019-03-09T03:02:39.329Z,0
2019-03-09T03:03:40.718Z,0
2019-03-09T03:04:42.110Z,0
2019-03-09T03:05:43.538Z,0
2019-03-09T03:06:44.943Z,0
2019-03-09T03:07:46.331Z,0
2019-03-09T03:08:48.605Z,0
2019-03-09T03:09:50.056Z,0
2019-03-09T03:10:51.431Z,0
2019-03-09T03:11:52.826Z,0
2019-03-09T03:12:54.224Z,0
2019-03-09T03:13:55.614Z,0
2019-03-09T03:14:57.001Z,0
2019-03-09T03:15:58.389Z,0
2019-03-09T03:16:59.779Z,0
2019-03-09T03:18:01.192Z,0
2019-03-09T03:19:02.597Z,0
2019-03-09T03:20:03.996Z,0
2019-03-09T03:21:05.406Z,0
2019-03-09T03:22:06.739Z,0
2019-03-09T03:23:08.124Z,0
2019-03-09T03:24:09.519Z,0
2019-03-09T03:25:10.900Z,0
2019-03-09T03:26:12.291Z,0
2019-03-09T03:27:13.681Z,0
2019-03-09T03:28:15.075Z,0
2019-03-09T03:29:16.462Z,0
2019-03-09T03:30:17.866Z,0
2019-03-09T03:31:19.257Z,0
2019-03-09T03:32:20.698Z,0
2019-03-09T03:33:22.010Z,0
2019-03-09T03:34:23.406Z,0
2019-03-09T03:35:24.838Z,0
2019-03-09T03:36:26.200Z,0
2019-03-09T03:37:27.590Z,0
2019-03-09T03:38:28.974Z,0
2019-03-09T03:39:30.390Z,0
2019-03-09T03:40:31.769Z,0
2019-03-09T03:41:33.167Z,0
2019-03-09T03:42:34.567Z,0
2019-03-09T03:43:35.956Z,0
2019-03-09T03:44:37.371Z,0
2019-03-09T03:45:38.759Z,0
2019-03-09T03:46:40.156Z,0
2019-03-09T03:47:41.557Z,0
2019-03-09T03:48:42.942Z,0
2019-03-09T03:49:44.341Z,0
2019-03-09T03:50:45.734Z,0
2019-03-09T03:51:47.142Z,0
2019-03-09T03:52:48.540Z,0
2019-03-09T03:53:49.935Z,0
2019-03-09T03:54:51.334Z,0
2019-03-09T03:55:52.751Z,0
2019-03-09T03:56:54.139Z,0
2019-03-09T03:57:55.549Z,0
2019-03-09T03:58:56.984Z,0
2019-03-09T03:59:58.336Z,0
2019-03-09T04:01:00.184Z,0
2019-03-09T04:02:01.570Z,0
2019-03-09T04:03:02.964Z,0
2019-03-09T04:04:04.346Z,0
2019-03-09T04:05:05.752Z,0
2019-03-09T04:06:07.133Z,0
2019-03-09T04:07:08.539Z,0
2019-03-09T04:08:09.920Z,0
2019-03-09T04:09:11.324Z,0
2019-03-09T04:10:12.720Z,0
2019-03-09T04:11:14.127Z,0
2019-03-09T04:12:15.518Z,0
2019-03-09T04:13:16.911Z,0
2019-03-09T04:14:18.299Z,0
2019-03-09T04:15:19.696Z,0
2019-03-09T04:16:21.122Z,0
2019-03-09T04:17:22.521Z,0
2019-03-09T04:18:23.937Z,0
2019-03-09T04:19:25.401Z,0
2019-03-09T04:20:26.703Z,0
2019-03-09T04:21:28.081Z,0
2019-03-09T04:22:29.501Z,0
2019-03-09T04:23:30.908Z,0
2019-03-09T04:24:32.309Z,0
2019-03-09T04:25:33.717Z,0
2019-03-09T04:26:35.119Z,0
2019-03-09T04:27:36.514Z,0
2019-03-09T04:28:37.913Z,0
2019-03-09T04:29:39.297Z,0
2019-03-09T04:30:40.701Z,0
2019-03-09T04:31:42.086Z,0
2019-03-09T04:32:44.146Z,0
2019-03-09T04:33:45.549Z,0
2019-03-09T04:34:46.961Z,0
2019-03-09T04:35:48.370Z,0
2019-03-09T04:36:49.759Z,0
2019-03-09T04:37:51.183Z,0
2019-03-09T04:38:52.596Z,0
2019-03-09T04:39:53.983Z,0
2019-03-09T04:40:55.429Z,0
2019-03-09T04:41:56.815Z,0
2019-03-09T04:42:58.224Z,0
2019-03-09T04:43:59.610Z,0
2019-03-09T04:45:01.069Z,0
2019-03-09T04:46:02.388Z,0
2019-03-09T04:47:03.783Z,0
2019-03-09T04:48:05.201Z,0
2019-03-09T04:49:07.584Z,0
2019-03-09T04:50:08.973Z,0
2019-03-09T04:51:10.380Z,0
2019-03-09T04:52:11.777Z,0
2019-03-09T04:53:13.201Z,0
2019-03-09T04:54:14.599Z,0
2019-03-09T04:55:15.994Z,0
2019-03-09T04:56:17.387Z,0
2019-03-09T04:57:18.790Z,0
2019-03-09T04:58:20.184Z,0
2019-03-09T04:59:21.584Z,0
2019-03-09T05:00:22.998Z,0
2019-03-09T05:01:24.393Z,0
2019-03-09T05:02:25.800Z,0
2019-03-09T05:03:27.198Z,0
2019-03-09T05:04:28.581Z,0
2019-03-09T05:05:29.988Z,0
2019-03-09T05:06:31.407Z,0
2019-03-09T05:07:32.810Z,0
2019-03-09T05:08:34.216Z,0
2019-03-09T05:09:35.604Z,0
2019-03-09T05:10:37.011Z,0
2019-03-09T05:11:38.397Z,0
2019-03-09T05:12:39.799Z,0
2019-03-09T05:13:41.222Z,0
2019-03-09T05:14:42.609Z,0
2019-03-09T05:15:44.042Z,0
2019-03-09T05:16:45.435Z,0
2019-03-09T05:17:46.823Z,0
2019-03-09T05:18:48.210Z,0
2019-03-09T05:19:49.609Z,0
2019-03-09T05:20:51.007Z,0
2019-03-09T05:21:52.395Z,0
2019-03-09T05:22:53.793Z,0
2019-03-09T05:23:55.164Z,0
2019-03-09T05:24:56.580Z,0
2019-03-09T05:25:57.987Z,0
2019-03-09T05:26:59.388Z,0
2019-03-09T05:28:00.802Z,0
2019-03-09T05:29:02.203Z,0
2019-03-09T05:30:03.621Z,0
2019-03-09T05:31:05.023Z,0
2019-03-09T05:32:06.412Z,0
2019-03-09T05:33:07.802Z,0
2019-03-09T05:34:09.198Z,0
2019-03-09T05:35:10.601Z,0
2019-03-09T05:36:12.020Z,0
2019-03-09T05:37:13.413Z,0
2019-03-09T05:38:14.815Z,0
2019-03-09T05:39:16.208Z,0
2019-03-09T05:40:17.589Z,0
2019-03-09T05:41:19.009Z,0
2019-03-09T05:42:20.405Z,0
2019-03-09T05:43:21.814Z,0
2019-03-09T05:44:23.221Z,0
2019-03-09T05:45:24.609Z,0
2019-03-09T05:46:26.003Z,0
2019-03-09T05:47:27.417Z,0
2019-03-09T05:48:28.806Z,0
2019-03-09T05:49:30.208Z,0
2019-03-09T05:50:31.601Z,0
2019-03-09T05:51:32.986Z,0
2019-03-09T05:52:34.400Z,0
2019-03-09T05:53:35.822Z,0
2019-03-09T05:54:37.214Z,0
2019-03-09T05:55:38.604Z,0
2019-03-09T05:56:39.990Z,0
2019-03-09T05:57:41.412Z,0
2019-03-09T05:58:42.798Z,0
2019-03-09T05:59:44.198Z,0
2019-03-09T06:00:45.606Z,0
2019-03-09T06:01:47.010Z,0
2019-03-09T06:02:48.430Z,0
2019-03-09T06:03:49.841Z,0
2019-03-09T06:04:51.317Z,0
2019-03-09T06:05:52.713Z,0
2019-03-09T06:06:54.126Z,0
2019-03-09T06:07:55.498Z,0
2019-03-09T06:08:56.921Z,0
2019-03-09T06:09:58.305Z,0
2019-03-09T06:10:59.788Z,0
2019-03-09T06:12:01.179Z,0
2019-03-09T06:13:02.579Z,0
2019-03-09T06:14:03.975Z,0
2019-03-09T06:15:05.370Z,0
2019-03-09T06:16:06.761Z,0
2019-03-09T06:17:08.164Z,0
2019-03-09T06:18:09.563Z,0
2019-03-09T06:19:10.951Z,0
2019-03-09T06:20:12.340Z,0
2019-03-09T06:21:13.728Z,0
2019-03-09T06:22:15.130Z,0
2019-03-09T06:23:16.521Z,0
2019-03-09T06:24:17.908Z,0
2019-03-09T06:25:19.299Z,0
2019-03-09T06:26:20.714Z,5
2019-03-09T06:27:22.101Z,5
2019-03-09T06:28:23.510Z,5
2019-03-09T06:29:24.968Z,5
2019-03-09T06:30:26.392Z,5
2019-03-09T06:31:27.787Z,5
2019-03-09T06:32:29.177Z,5
2019-03-09T06:33:30.567Z,5
2019-03-09T06:34:31.979Z,10
2019-03-09T06:35:33.373Z,5
2019-03-09T06:36:34.761Z,5
2019-03-09T06:37:36.153Z,5
2019-03-09T06:38:37.556Z,5
2019-03-09T06:39:38.943Z,5
2019-03-09T06:40:40.346Z,5
2019-03-09T06:41:41.737Z,5
2019-03-09T06:42:43.138Z,5
2019-03-09T06:43:44.559Z,5
2019-03-09T06:44:45.953Z,5
2019-03-09T06:45:47.373Z,5
2019-03-09T06:46:50.043Z,5
2019-03-09T06:47:50.098Z,5
2019-03-09T06:48:51.498Z,5
2019-03-09T06:49:52.904Z,5
2019-03-09T06:50:54.394Z,5
2019-03-09T06:51:55.796Z,10
2019-03-09T06:52:57.194Z,5
2019-03-09T06:53:58.600Z,5
2019-03-09T06:55:00.544Z,10
2019-03-09T06:56:01.930Z,10
2019-03-09T06:57:03.331Z,5
2019-03-09T06:58:04.738Z,5
2019-03-09T06:59:06.117Z,5
2019-03-09T07:00:07.527Z,5
2019-03-09T07:01:08.922Z,10
2019-03-09T07:02:10.393Z,10
2019-03-09T07:03:11.775Z,15
2019-03-09T07:04:13.249Z,15
2019-03-09T07:05:14.632Z,15
2019-03-09T07:06:16.101Z,15
2019-03-09T07:07:17.505Z,15
2019-03-09T07:08:18.958Z,10
2019-03-09T07:09:20.385Z,10
2019-03-09T07:10:21.793Z,10
2019-03-09T07:11:23.205Z,10
2019-03-09T07:12:24.593Z,5
2019-03-09T07:13:26.036Z,10
2019-03-09T07:14:27.476Z,5
2019-03-09T07:15:28.892Z,5
2019-03-09T07:16:30.299Z,5
2019-03-09T07:17:31.698Z,5
2019-03-09T07:18:33.086Z,5
2019-03-09T07:19:34.504Z,5
2019-03-09T07:20:35.906Z,5
2019-03-09T07:21:37.304Z,5
2019-03-09T07:22:38.713Z,5
2019-03-09T07:23:40.102Z,5
2019-03-09T07:24:41.516Z,5
2019-03-09T07:25:42.927Z,5
2019-03-09T07:26:44.322Z,5
2019-03-09T07:27:45.737Z,10
2019-03-09T07:28:47.142Z,10
2019-03-09T07:29:48.560Z,5
2019-03-09T07:30:49.973Z,5
2019-03-09T07:31:51.373Z,5
2019-03-09T07:32:52.776Z,5
2019-03-09T07:33:54.165Z,10
2019-03-09T07:34:55.569Z,10
2019-03-09T07:35:57.026Z,10
2019-03-09T07:36:58.405Z,15
2019-03-09T07:37:59.816Z,15
2019-03-09T07:39:01.214Z,20
2019-03-09T07:40:02.605Z,20
2019-03-09T07:41:04.003Z,25
2019-03-09T07:42:05.389Z,20
2019-03-09T07:43:06.820Z,20
2019-03-09T07:44:08.209Z,15
2019-03-09T07:45:09.621Z,25
2019-03-09T07:46:11.042Z,25
2019-03-09T07:47:12.456Z,20
2019-03-09T07:48:13.852Z,20
2019-03-09T07:49:15.258Z,30
2019-03-09T07:50:16.642Z,25
2019-03-09T07:51:18.042Z,15
2019-03-09T07:52:19.456Z,25
2019-03-09T07:53:20.859Z,35
2019-03-09T07:54:22.263Z,35
2019-03-09T07:55:23.714Z,40
2019-03-09T07:56:25.146Z,25
2019-03-09T07:57:27.662Z,15
2019-03-09T07:58:29.227Z,15
2019-03-09T07:59:30.737Z,25
2019-03-09T08:00:32.132Z,25
2019-03-09T08:01:33.577Z,25
2019-03-09T08:02:34.979Z,30
2019-03-09T08:03:36.379Z,20
2019-03-09T08:04:37.782Z,20
2019-03-09T08:05:39.199Z,30
2019-03-09T08:06:40.593Z,30
2019-03-09T08:07:42.006Z,35
2019-03-09T08:08:43.427Z,40
2019-03-09T08:09:44.846Z,65
2019-03-09T08:10:46.333Z,85
2019-03-09T08:11:47.771Z,70
2019-03-09T08:12:49.162Z,65
2019-03-09T08:13:50.551Z,60
2019-03-09T08:14:52.072Z,75
2019-03-09T08:15:53.482Z,55
2019-03-09T08:16:54.942Z,165
2019-03-09T08:17:56.377Z,255
2019-03-09T08:18:57.872Z,250
2019-03-09T08:19:59.233Z,580
2019-03-09T08:21:00.632Z,225
2019-03-09T08:22:02.049Z,75
2019-03-09T08:23:03.458Z,140
2019-03-09T08:24:04.852Z,350
2019-03-09T08:25:06.307Z,155
2019-03-09T08:26:07.703Z,130
2019-03-09T08:27:09.123Z,115
2019-03-09T08:28:10.546Z,115
2019-03-09T08:29:11.973Z,110
2019-03-09T08:30:13.364Z,120
2019-03-09T08:31:14.839Z,960
2019-03-09T08:32:16.160Z,220
2019-03-09T08:33:17.591Z,275
2019-03-09T08:34:18.979Z,440
2019-03-09T08:35:20.403Z,135
2019-03-09T08:36:21.829Z,130
2019-03-09T08:37:23.217Z,125
2019-03-09T08:38:24.651Z,135
2019-03-09T08:39:26.062Z,235
2019-03-09T08:40:27.460Z,1215
2019-03-09T08:41:28.882Z,1085
2019-03-09T08:42:30.282Z,1380
2019-03-09T08:43:31.687Z,275
2019-03-09T08:44:33.067Z,105
2019-03-09T08:45:34.458Z,85
2019-03-09T08:46:35.866Z,260
2019-03-09T08:47:37.270Z,140
2019-03-09T08:48:38.666Z,150
2019-03-09T08:49:40.093Z,245
2019-03-09T08:50:41.471Z,285
2019-03-09T08:51:42.888Z,240
2019-03-09T08:52:44.322Z,975
2019-03-09T08:53:45.704Z,365
2019-03-09T08:54:47.107Z,1230
2019-03-09T08:55:48.516Z,190
2019-03-09T08:56:50.017Z,180
2019-03-09T08:57:51.419Z,165
2019-03-09T08:58:52.857Z,1230
2019-03-09T08:59:54.217Z,275
2019-03-09T09:00:55.625Z,1255
2019-03-09T09:01:57.019Z,210
2019-03-09T09:02:58.421Z,215
2019-03-09T09:03:59.826Z,310
2019-03-09T09:05:01.232Z,550
2019-03-09T09:06:02.645Z,810
2019-03-09T09:07:04.056Z,350
2019-03-09T09:08:06.010Z,250
2019-03-09T09:09:07.417Z,1425
2019-03-09T09:10:08.816Z,400
2019-03-09T09:11:10.227Z,195
2019-03-09T09:12:11.641Z,160
2019-03-09T09:13:13.038Z,105
2019-03-09T09:14:14.482Z,80
2019-03-09T09:15:15.872Z,70
2019-03-09T09:16:17.286Z,60
2019-03-09T09:17:18.686Z,70
2019-03-09T09:18:20.083Z,115
2019-03-09T09:19:21.489Z,155
2019-03-09T09:20:22.890Z,175
2019-03-09T09:21:24.291Z,255
2019-03-09T09:22:25.684Z,460
2019-03-09T09:23:27.078Z,345
2019-03-09T09:24:28.526Z,195
2019-03-09T09:25:29.958Z,145
2019-03-09T09:26:31.354Z,155
2019-03-09T09:27:32.750Z,255
2019-03-09T09:28:34.155Z,590
2019-03-09T09:29:35.561Z,520
2019-03-09T09:30:36.966Z,1145
2019-03-09T09:31:38.388Z,270
2019-03-09T09:32:39.775Z,350
2019-03-09T09:33:41.177Z,250
2019-03-09T09:34:42.587Z,225
2019-03-09T09:35:44.003Z,1170
2019-03-09T09:36:45.396Z,1300
2019-03-09T09:37:46.827Z,730
2019-03-09T09:38:48.229Z,195
2019-03-09T09:39:49.635Z,650
2019-03-09T09:40:51.044Z,120
2019-03-09T09:41:52.440Z,635
2019-03-09T09:42:53.857Z,1215
2019-03-09T09:43:55.259Z,1210
2019-03-09T09:44:56.670Z,1220
2019-03-09T09:45:58.070Z,1230
2019-03-09T09:46:59.487Z,1260
2019-03-09T09:48:00.901Z,1285
2019-03-09T09:49:02.308Z,1325
2019-03-09T09:50:03.735Z,1355
2019-03-09T09:51:05.148Z,1385
2019-03-09T09:52:06.562Z,1425
2019-03-09T09:53:07.975Z,1455
2019-03-09T09:54:09.395Z,1440
2019-03-09T09:55:10.842Z,1430
2019-03-09T09:56:12.249Z,1385
2019-03-09T09:57:13.666Z,1190
2019-03-09T09:58:15.069Z,305
2019-03-09T09:59:16.483Z,225
2019-03-09T10:00:17.889Z,965
2019-03-09T10:01:19.299Z,1355
2019-03-09T10:02:20.711Z,1390
2019-03-09T10:03:22.141Z,1425
2019-03-09T10:04:23.556Z,1020
2019-03-09T10:05:24.970Z,390
2019-03-09T10:06:27.109Z,290
2019-03-09T10:07:28.519Z,300
2019-03-09T10:08:29.932Z,275
2019-03-09T10:09:31.405Z,980
2019-03-09T10:10:32.767Z,260
2019-03-09T10:11:34.220Z,495
2019-03-09T10:12:35.635Z,385
2019-03-09T10:13:37.072Z,1080
2019-03-09T10:14:38.496Z,1405
2019-03-09T10:15:40.009Z,1385
2019-03-09T10:16:41.482Z,1355
2019-03-09T10:17:42.961Z,1370
2019-03-09T10:18:44.444Z,1325
2019-03-09T10:19:45.887Z,1405
2019-03-09T10:20:47.339Z,1475
2019-03-09T10:21:49.672Z,1350
2019-03-09T10:22:51.098Z,1385
2019-03-09T10:23:52.529Z,350
2019-03-09T10:24:53.970Z,940
2019-03-09T10:25:55.387Z,1305
2019-03-09T10:26:56.823Z,340
2019-03-09T10:27:58.253Z,165
2019-03-09T10:28:59.730Z,1465
2019-03-09T10:30:01.151Z,1520
2019-03-09T10:31:02.571Z,320
2019-03-09T10:32:03.988Z,365
2019-03-09T10:33:05.414Z,1455
2019-03-09T10:34:06.839Z,690
2019-03-09T10:35:08.261Z,900
2019-03-09T10:36:09.693Z,1380
2019-03-09T10:37:11.138Z,200
2019-03-09T10:38:12.562Z,170
2019-03-09T10:39:13.980Z,140
2019-03-09T10:40:15.419Z,175
2019-03-09T10:41:16.850Z,135
2019-03-09T10:42:18.294Z,170
2019-03-09T10:43:19.722Z,120
2019-03-09T10:44:21.137Z,115
2019-03-09T10:45:22.549Z,135
2019-03-09T10:46:23.972Z,205
2019-03-09T10:47:25.384Z,210
2019-03-09T10:48:26.826Z,225
2019-03-09T10:49:28.260Z,170
2019-03-09T10:50:29.675Z,160
2019-03-09T10:51:31.078Z,190
2019-03-09T10:52:32.502Z,210
2019-03-09T10:53:33.917Z,135
2019-03-09T10:54:36.176Z,135
2019-03-09T10:55:36.719Z,130
2019-03-09T10:56:38.136Z,150
2019-03-09T10:57:39.550Z,150
2019-03-09T10:58:40.963Z,160
2019-03-09T10:59:42.383Z,160
2019-03-09T11:00:43.905Z,210
2019-03-09T11:01:45.311Z,190
2019-03-09T11:02:46.740Z,165
2019-03-09T11:03:48.186Z,140
2019-03-09T11:04:49.646Z,145
2019-03-09T11:05:51.067Z,655
2019-03-09T11:06:52.487Z,575
2019-03-09T11:07:53.958Z,215
2019-03-09T11:08:55.383Z,165
2019-03-09T11:09:57.624Z,165
2019-03-09T11:10:59.056Z,425
2019-03-09T11:12:00.464Z,435
2019-03-09T11:13:01.909Z,175
2019-03-09T11:14:03.328Z,140
2019-03-09T11:15:04.788Z,90
2019-03-09T11:16:06.209Z,65
2019-03-09T11:17:07.634Z,75
2019-03-09T11:18:09.173Z,95
2019-03-09T11:19:10.603Z,110
2019-03-09T11:20:12.042Z,140
2019-03-09T11:21:13.464Z,110
2019-03-09T11:22:14.903Z,65
2019-03-09T11:23:16.312Z,55
2019-03-09T11:24:17.748Z,55
2019-03-09T11:25:19.171Z,70
2019-03-09T11:26:20.651Z,100
2019-03-09T11:27:22.079Z,140
2019-03-09T11:28:23.518Z,115
2019-03-09T11:29:24.949Z,85
2019-03-09T11:30:26.408Z,130
2019-03-09T11:31:27.847Z,320
2019-03-09T11:32:29.256Z,1035
2019-03-09T11:33:30.687Z,1090
2019-03-09T11:34:32.130Z,1105
2019-03-09T11:35:33.578Z,1085
2019-03-09T11:36:35.036Z,1060
2019-03-09T11:37:36.506Z,1030
2019-03-09T11:38:37.996Z,980
2019-03-09T11:39:39.458Z,925
2019-03-09T11:40:40.924Z,685
2019-03-09T11:41:42.394Z,335
2019-03-09T11:42:43.909Z,280
2019-03-09T11:43:45.354Z,275
2019-03-09T11:44:46.833Z,260
2019-03-09T11:45:48.271Z,230
2019-03-09T11:46:49.716Z,160
2019-03-09T11:47:51.152Z,460
2019-03-09T11:48:52.605Z,645
2019-03-09T11:49:54.076Z,285
2019-03-09T11:50:55.518Z,540
2019-03-09T11:51:56.923Z,230
2019-03-09T11:52:58.345Z,195
2019-03-09T11:53:59.787Z,145
2019-03-09T11:55:01.212Z,250
2019-03-09T11:56:02.637Z,175
2019-03-09T11:57:04.063Z,130
2019-03-09T11:58:05.491Z,235
2019-03-09T11:59:06.921Z,210
2019-03-09T12:00:08.345Z,185
2019-03-09T12:01:09.768Z,145
2019-03-09T12:02:11.188Z,95
2019-03-09T12:03:12.600Z,95
2019-03-09T12:04:14.032Z,90
2019-03-09T12:05:15.462Z,90
2019-03-09T12:06:16.904Z,85
2019-03-09T12:07:18.514Z,90
2019-03-09T12:08:19.952Z,105
2019-03-09T12:09:21.398Z,100
2019-03-09T12:10:22.851Z,75
2019-03-09T12:11:24.280Z,50
2019-03-09T12:12:25.709Z,60
2019-03-09T12:13:27.867Z,60
2019-03-09T12:14:29.327Z,70
2019-03-09T12:15:30.760Z,85
2019-03-09T12:16:32.150Z,80
2019-03-09T12:17:33.574Z,75
2019-03-09T12:18:34.969Z,80
2019-03-09T12:19:36.382Z,60
2019-03-09T12:20:37.796Z,80
2019-03-09T12:21:39.228Z,155
2019-03-09T12:22:40.625Z,285
2019-03-09T12:23:42.034Z,245
2019-03-09T12:24:43.442Z,185
2019-03-09T12:25:44.855Z,140
2019-03-09T12:26:46.256Z,165
2019-03-09T12:27:47.677Z,195
2019-03-09T12:28:49.096Z,195
2019-03-09T12:29:50.497Z,215
2019-03-09T12:30:51.905Z,210
2019-03-09T12:31:53.341Z,220
2019-03-09T12:32:54.764Z,190
2019-03-09T12:33:56.156Z,215
2019-03-09T12:34:57.566Z,180
2019-03-09T12:35:59.006Z,190
2019-03-09T12:37:00.414Z,195
2019-03-09T12:38:01.826Z,185
2019-03-09T12:39:03.242Z,195
2019-03-09T12:40:04.646Z,190
2019-03-09T12:41:06.702Z,195
2019-03-09T12:42:08.113Z,180
2019-03-09T12:43:09.520Z,170
2019-03-09T12:44:10.952Z,180
2019-03-09T12:45:12.320Z,185
2019-03-09T12:46:13.717Z,190
2019-03-09T12:47:15.151Z,200
2019-03-09T12:48:16.593Z,190
2019-03-09T12:49:18.015Z,195
2019-03-09T12:50:19.421Z,200
2019-03-09T12:51:20.815Z,210
2019-03-09T12:52:22.232Z,195
2019-03-09T12:53:23.642Z,185
2019-03-09T12:54:25.058Z,160
2019-03-09T12:55:26.468Z,125
2019-03-09T12:56:27.883Z,95
2019-03-09T12:57:29.296Z,80
2019-03-09T12:58:30.732Z,70
2019-03-09T12:59:32.116Z,70
2019-03-09T13:00:33.623Z,80
2019-03-09T13:01:35.044Z,70
2019-03-09T13:02:36.463Z,65
2019-03-09T13:03:37.955Z,80
2019-03-09T13:04:39.369Z,100
2019-03-09T13:05:40.800Z,100
2019-03-09T13:06:42.226Z,115
2019-03-09T13:07:43.671Z,105
2019-03-09T13:08:45.106Z,95
2019-03-09T13:09:46.554Z,75
2019-03-09T13:10:48.001Z,60
2019-03-09T13:11:49.417Z,45
2019-03-09T13:12:50.841Z,45
2019-03-09T13:13:52.267Z,55
2019-03-09T13:14:53.659Z,85
2019-03-09T13:15:55.080Z,95
2019-03-09T13:16:56.476Z,85
2019-03-09T13:17:57.902Z,65
2019-03-09T13:18:59.305Z,55
2019-03-09T13:20:00.703Z,65
2019-03-09T13:21:02.118Z,75
2019-03-09T13:22:04.413Z,55
2019-03-09T13:23:05.857Z,45
2019-03-09T13:24:07.264Z,55
2019-03-09T13:25:08.715Z,65
2019-03-09T13:26:10.130Z,95
2019-03-09T13:27:12.220Z,115
2019-03-09T13:28:13.572Z,115
2019-03-09T13:29:14.976Z,105
2019-03-09T13:30:16.417Z,90
2019-03-09T13:31:17.827Z,75
2019-03-09T13:32:19.246Z,65
2019-03-09T13:33:20.655Z,50
2019-03-09T13:34:22.046Z,45
2019-03-09T13:35:23.452Z,45
2019-03-09T13:36:24.846Z,55
2019-03-09T13:37:26.254Z,45
2019-03-09T13:38:27.645Z,40
2019-03-09T13:39:29.092Z,40
2019-03-09T13:40:30.489Z,50
2019-03-09T13:41:33.039Z,55
2019-03-09T13:42:33.269Z,55
2019-03-09T13:43:34.667Z,85
2019-03-09T13:44:36.081Z,130
2019-03-09T13:45:37.477Z,120
2019-03-09T13:46:38.884Z,125
2019-03-09T13:47:40.278Z,120
2019-03-09T13:48:41.679Z,115
2019-03-09T13:49:43.069Z,120
2019-03-09T13:50:44.474Z,115
2019-03-09T13:51:45.877Z,115
2019-03-09T13:52:47.277Z,110
2019-03-09T13:53:48.683Z,110
2019-03-09T13:54:50.114Z,110
2019-03-09T13:55:52.092Z,105
2019-03-09T13:56:52.904Z,105
2019-03-09T13:57:54.315Z,100
2019-03-09T13:58:55.718Z,105
2019-03-09T13:59:57.107Z,100
2019-03-09T14:00:58.540Z,100
2019-03-09T14:01:59.935Z,100
2019-03-09T14:03:03.105Z,95
2019-03-09T14:04:02.706Z,95
2019-03-09T14:05:04.119Z,100
2019-03-09T14:06:05.530Z,110
2019-03-09T14:07:06.973Z,110
2019-03-09T14:08:08.391Z,100
2019-03-09T14:09:09.824Z,95
2019-03-09T14:10:11.234Z,90
2019-03-09T14:11:12.643Z,80
2019-03-09T14:12:14.366Z,80
2019-03-09T14:13:15.761Z,85
2019-03-09T14:14:17.181Z,80
2019-03-09T14:15:18.576Z,85
2019-03-09T14:16:19.992Z,85
2019-03-09T14:17:21.433Z,85
2019-03-09T14:18:22.832Z,85
2019-03-09T14:19:24.249Z,90
2019-03-09T14:20:25.647Z,90
2019-03-09T14:21:27.632Z,90
2019-03-09T14:22:29.058Z,90
2019-03-09T14:23:30.498Z,90
2019-03-09T14:24:31.914Z,90
2019-03-09T14:25:33.360Z,95
2019-03-09T14:26:34.804Z,95
2019-03-09T14:27:36.208Z,95
2019-03-09T14:28:37.656Z,95
2019-03-09T14:29:39.085Z,100
2019-03-09T14:30:40.518Z,105
2019-03-09T14:31:41.920Z,110
2019-03-09T14:32:43.359Z,115
2019-03-09T14:33:44.789Z,110
2019-03-09T14:34:46.204Z,105
2019-03-09T14:35:47.626Z,95
2019-03-09T14:36:49.082Z,85
2019-03-09T14:37:50.545Z,85
2019-03-09T14:38:51.966Z,80
2019-03-09T14:39:53.399Z,75